Aérodrome :
LOGIN :

S'inscrire | Disclaimer

   EN    FR    IT 

 










Légende :    VFR   VFR Marginal   IFR   IFR Intensif   IFR Très Intensif
Visi : 
Plafond : 
>= 8 km
>= 3000ft
5 à 8 km
1000 à 3000 ft
1500m à 5 km
500 à 1000 ft
800 à 1500m
200 à 500 ft
< 800m
< 200 ft
Symboles :   Orages  Brouillard  Fortes neiges  Fortes précipitations  Vent > 20 kt
SIGMETs :   Divers  Orages  Givrage  Turbulence  Onde Orograph.  Cendres Volcan.






- Altitude de l'aérodrome : 138 ft
- Code IATA : BIO


LEBB - Bilbao

DERNIER METAR :
  • 271200Z 28008KT 240V320 CAVOK 26/14 Q1025 NOSIG

METARs EXPIRÉS :
  • 271130Z 29007KT 250V330 CAVOK 25/14 Q1026 NOSIG
  • 271100Z 29006KT 240V320 CAVOK 25/14 Q1026 NOSIG
  • 271030Z VRB01KT CAVOK 25/15 Q1026 NOSIG
  • 271000Z 28003KT 210V350 CAVOK 24/15 Q1026 NOSIG
  • 270930Z VRB01KT CAVOK 23/15 Q1027 NOSIG
  • 270900Z 00000KT CAVOK 22/13 Q1027 NOSIG

TAF TAF LEBB
Valide du 27 à 12h jusqu'au 28 à 12h UTC


271100Z 2712/2812 03008KT CAVOK TX26/2712Z TN15/2805Z
TEMPO 2712/2718 29010KT



MET'MAP, la Météo Aéronautique d'un coup d'oeil ! - Copyright ORBIFLY Décembre 2007 - Disclaimer

ORBIFLY MET'MAP TEAM :

Programmation & Développement : Alexandra Zaïnal
Sur une idée originale de : Baudouin d'Aumeries
Assistance à la programmation : Marc-Olivier Méhu
Soutien technique & logistique : Manuel Goepfert

Contact : metmap@orbifly.com




SOURCES & CREDITS :

   NOAA